Time,TemperatureF,DewpointF,PressureIn,WindDirection,WindDirectionDegrees,WindSpeedMPH,WindSpeedGustMPH,Humidity,HourlyPrecipIn,Conditions,Clouds,dailyrainin,SolarRadiationWatts/m^2,SoftwareType,DateUTC
2013-05-21 00:03:00,70.0,70.0,-100.00,East,96,0.0,0.0,100,0.00,,,0.00,0.000000,,2013-05-21 04:03:00,
2013-05-21 00:13:00,70.0,70.0,-100.00,East,96,0.0,0.0,100,0.00,,,0.00,0.000000,,2013-05-21 04:13:00,
2013-05-21 00:42:00,69.0,69.0,-100.00,ESE,113,0.0,1.0,100,0.00,,,0.00,0.000000,,2013-05-21 04:42:00,
2013-05-21 00:53:00,69.0,69.0,-100.00,ESE,113,0.0,1.0,100,0.00,,,0.00,0.000000,,2013-05-21 04:53:00,
2013-05-21 01:02:00,69.0,69.0,-100.00,ESE,113,0.0,1.0,100,0.00,,,0.00,0.000000,,2013-05-21 05:02:00,
2013-05-21 01:12:00,69.0,69.0,-100.00,ESE,113,0.0,1.0,100,0.00,,,0.00,0.000000,,2013-05-21 05:12:00,
2013-05-21 01:22:00,69.0,69.0,-100.00,ESE,113,0.0,1.0,100,0.00,,,0.00,0.000000,,2013-05-21 05:22:00,
2013-05-21 01:42:00,69.0,69.0,-100.00,SE,124,0.0,0.0,100,0.00,,,0.00,0.000000,,2013-05-21 05:42:00,
2013-05-21 01:52:00,69.0,69.0,-100.00,SE,124,0.0,0.0,100,0.00,,,0.00,0.000000,,2013-05-21 05:52:00,
2013-05-21 02:02:00,69.0,69.0,-100.00,SE,124,0.0,0.0,100,0.00,,,0.00,0.000000,,2013-05-21 06:02:00,
2013-05-21 02:12:00,69.0,69.0,-100.00,SE,124,0.0,0.0,100,0.00,,,0.00,0.000000,,2013-05-21 06:12:00,
2013-05-21 02:21:00,69.0,69.0,-100.00,SE,124,0.0,0.0,100,0.00,,,0.00,0.000000,,2013-05-21 06:21:00,
2013-05-21 02:42:00,68.0,68.0,-100.00,ESE,115,0.0,0.0,100,0.00,,,0.00,0.000000,,2013-05-21 06:42:00,
2013-05-21 02:52:00,68.0,68.0,-100.00,ESE,115,0.0,0.0,100,0.00,,,0.00,0.000000,,2013-05-21 06:52:00,
2013-05-21 03:01:00,68.0,68.0,-100.00,ESE,115,0.0,0.0,100,0.00,,,0.00,0.000000,,2013-05-21 07:01:00,
2013-05-21 03:11:00,68.0,68.0,-100.00,ESE,115,0.0,0.0,100,0.00,,,0.00,0.000000,,2013-05-21 07:11:00,
2013-05-21 03:22:00,68.0,68.0,-100.00,ESE,115,0.0,0.0,100,0.00,,,0.00,0.000000,,2013-05-21 07:22:00,
2013-05-21 03:42:00,67.0,67.0,-100.00,ESE,113,0.0,0.0,100,0.00,,,0.00,0.000000,,2013-05-21 07:42:00,
2013-05-21 03:52:00,67.0,67.0,-100.00,ESE,113,0.0,0.0,100,0.00,,,0.00,0.000000,,2013-05-21 07:52:00,
2013-05-21 04:02:00,67.0,67.0,-100.00,ESE,113,0.0,0.0,100,0.00,,,0.00,0.000000,,2013-05-21 08:02:00,
2013-05-21 04:11:00,67.0,67.0,-100.00,ESE,113,0.0,0.0,100,0.00,,,0.00,0.000000,,2013-05-21 08:11:00,
2013-05-21 04:21:00,67.0,67.0,-100.00,ESE,113,0.0,0.0,100,0.00,,,0.00,0.000000,,2013-05-21 08:21:00,
2013-05-21 04:42:00,67.0,67.0,-100.00,ESE,120,0.0,0.0,100,0.00,,,0.00,0.000000,,2013-05-21 08:42:00,
2013-05-21 04:52:00,67.0,67.0,-100.00,ESE,120,0.0,0.0,100,0.00,,,0.00,0.000000,,2013-05-21 08:52:00,
2013-05-21 05:01:00,67.0,67.0,-100.00,ESE,120,0.0,0.0,100,0.00,,,0.00,0.000000,,2013-05-21 09:01:00,
2013-05-21 05:11:00,67.0,67.0,-100.00,ESE,120,0.0,0.0,100,0.00,,,0.00,0.000000,,2013-05-21 09:11:00,
2013-05-21 05:21:00,67.0,67.0,-100.00,ESE,120,0.0,0.0,100,0.00,,,0.00,0.000000,,2013-05-21 09:21:00,
2013-05-21 05:53:00,67.0,67.0,-100.00,SE,127,0.0,0.0,100,0.00,,,0.00,0.000000,,2013-05-21 09:53:00,
2013-05-21 06:03:00,67.0,67.0,-100.00,SE,127,0.0,0.0,100,0.00,,,0.00,0.000000,,2013-05-21 10:03:00,
2013-05-21 06:12:00,67.0,67.0,-100.00,SE,127,0.0,0.0,100,0.00,,,0.00,0.000000,,2013-05-21 10:12:00,
2013-05-21 06:22:00,67.0,67.0,-100.00,SE,127,0.0,0.0,100,0.00,,,0.00,0.000000,,2013-05-21 10:22:00,
2013-05-21 06:42:00,67.0,67.0,-100.00,ESE,105,1.0,2.0,100,0.00,,,0.00,2.000000,,2013-05-21 10:42:00,
2013-05-21 06:52:00,67.0,67.0,-100.00,ESE,105,1.0,2.0,100,0.00,,,0.00,2.000000,,2013-05-21 10:52:00,
2013-05-21 07:02:00,67.0,67.0,-100.00,ESE,105,1.0,2.0,100,0.00,,,0.00,2.000000,,2013-05-21 11:02:00,
2013-05-21 07:12:00,67.0,67.0,-100.00,ESE,105,1.0,2.0,100,0.00,,,0.00,2.000000,,2013-05-21 11:12:00,
2013-05-21 07:21:00,67.0,67.0,-100.00,ESE,105,1.0,2.0,100,0.00,,,0.00,2.000000,,2013-05-21 11:21:00,
2013-05-21 07:42:00,67.0,67.0,-100.00,ESE,108,0.0,1.0,100,0.00,,,0.00,32.000000,,2013-05-21 11:42:00,
2013-05-21 07:52:00,67.0,67.0,-100.00,ESE,108,0.0,1.0,100,0.00,,,0.00,32.000000,,2013-05-21 11:52:00,
2013-05-21 08:01:00,67.0,67.0,-100.00,ESE,108,0.0,1.0,100,0.00,,,0.00,32.000000,,2013-05-21 12:01:00,
2013-05-21 08:11:00,67.0,67.0,-100.00,ESE,108,0.0,1.0,100,0.00,,,0.00,32.000000,,2013-05-21 12:11:00,
2013-05-21 08:21:00,67.0,67.0,-100.00,ESE,108,0.0,1.0,100,0.00,,,0.00,32.000000,,2013-05-21 12:21:00,
2013-05-21 08:42:00,69.0,69.0,-100.00,ENE,77,1.0,3.0,100,0.00,,,0.00,101.000000,,2013-05-21 12:42:00,
2013-05-21 08:52:00,69.0,69.0,-100.00,ENE,77,1.0,3.0,100,0.00,,,0.00,101.000000,,2013-05-21 12:52:00,
2013-05-21 09:01:00,69.0,69.0,-100.00,ENE,77,1.0,3.0,100,0.00,,,0.00,101.000000,,2013-05-21 13:01:00,
2013-05-21 09:12:00,69.0,69.0,-100.00,ENE,77,1.0,3.0,100,0.00,,,0.00,101.000000,,2013-05-21 13:12:00,
2013-05-21 09:22:00,69.0,69.0,-100.00,ENE,77,1.0,3.0,100,0.00,,,0.00,101.000000,,2013-05-21 13:22:00,
2013-05-21 09:42:00,73.0,73.0,-100.00,NE,52,1.0,5.0,100,0.00,,,0.00,217.000000,,2013-05-21 13:42:00,
2013-05-21 09:52:00,73.0,73.0,-100.00,NE,52,1.0,5.0,100,0.00,,,0.00,217.000000,,2013-05-21 13:52:00,
2013-05-21 10:02:00,73.0,73.0,-100.00,NE,52,1.0,5.0,100,0.00,,,0.00,217.000000,,2013-05-21 14:02:00,
2013-05-21 10:11:00,73.0,73.0,-100.00,NE,52,1.0,5.0,100,0.00,,,0.00,217.000000,,2013-05-21 14:11:00,
2013-05-21 10:21:00,73.0,73.0,-100.00,NE,52,1.0,5.0,100,0.00,,,0.00,217.000000,,2013-05-21 14:21:00,
2013-05-21 10:42:00,74.0,74.0,-100.00,NE,55,1.0,4.0,100,0.00,,,0.00,202.000000,,2013-05-21 14:42:00,
2013-05-21 10:52:00,74.0,74.0,-100.00,NE,55,1.0,4.0,100,0.00,,,0.00,202.000000,,2013-05-21 14:52:00,
2013-05-21 11:01:00,74.0,74.0,-100.00,NE,55,1.0,4.0,100,0.00,,,0.00,202.000000,,2013-05-21 15:01:00,
2013-05-21 11:11:00,74.0,74.0,-100.00,NE,55,1.0,4.0,100,0.00,,,0.00,202.000000,,2013-05-21 15:11:00,
2013-05-21 11:21:00,74.0,74.0,-100.00,NE,55,1.0,4.0,100,0.00,,,0.00,202.000000,,2013-05-21 15:21:00,
2013-05-21 11:23:00,81.0,78.0,-100.00,NNE,20,2.0,7.0,92,0.00,,,0.00,496.000000,,2013-05-21 15:23:00,
2013-05-21 11:42:00,81.0,78.0,-100.00,NNE,20,2.0,7.0,92,0.00,,,0.00,496.000000,,2013-05-21 15:42:00,
2013-05-21 11:53:00,81.0,78.0,-100.00,NNE,20,2.0,7.0,92,0.00,,,0.00,496.000000,,2013-05-21 15:53:00,
2013-05-21 12:03:00,81.0,78.0,-100.00,NNE,20,2.0,7.0,92,0.00,,,0.00,496.000000,,2013-05-21 16:03:00,
2013-05-21 12:13:00,81.0,78.0,-100.00,NNE,20,2.0,7.0,92,0.00,,,0.00,496.000000,,2013-05-21 16:13:00,
2013-05-21 12:23:00,82.0,77.0,-100.00,NNE,22,1.0,7.0,86,0.00,,,0.00,648.000000,,2013-05-21 16:23:00,
2013-05-21 12:42:00,82.0,77.0,-100.00,NNE,22,1.0,7.0,86,0.00,,,0.00,648.000000,,2013-05-21 16:42:00,
2013-05-21 12:53:00,82.0,77.0,-100.00,NNE,22,1.0,7.0,86,0.00,,,0.00,648.000000,,2013-05-21 16:53:00,
2013-05-21 13:02:00,82.0,77.0,-100.00,NNE,22,1.0,7.0,86,0.00,,,0.00,648.000000,,2013-05-21 17:02:00,
2013-05-21 13:12:00,82.0,77.0,-100.00,NNE,22,1.0,7.0,86,0.00,,,0.00,648.000000,,2013-05-21 17:12:00,
2013-05-21 13:44:00,85.0,75.0,-100.00,NE,43,2.0,5.0,72,0.00,,,0.00,824.000000,,2013-05-21 17:44:00,
2013-05-21 13:52:00,85.0,75.0,-100.00,NE,43,2.0,5.0,72,0.00,,,0.00,824.000000,,2013-05-21 17:52:00,
2013-05-21 14:02:00,85.0,75.0,-100.00,NE,43,2.0,5.0,72,0.00,,,0.00,824.000000,,2013-05-21 18:02:00,
2013-05-21 14:12:00,85.0,75.0,-100.00,NE,43,2.0,5.0,72,0.00,,,0.00,824.000000,,2013-05-21 18:12:00,
2013-05-21 14:22:00,85.0,75.0,-100.00,NE,43,2.0,5.0,72,0.00,,,0.00,824.000000,,2013-05-21 18:22:00,
2013-05-21 14:42:00,87.0,74.0,-100.00,NE,55,2.0,9.0,65,0.00,,,0.00,876.000000,,2013-05-21 18:42:00,
2013-05-21 14:52:00,87.0,74.0,-100.00,NE,55,2.0,9.0,65,0.00,,,0.00,876.000000,,2013-05-21 18:52:00,
2013-05-21 15:02:00,87.0,74.0,-100.00,NE,55,2.0,9.0,65,0.00,,,0.00,876.000000,,2013-05-21 19:02:00,
2013-05-21 15:11:00,87.0,74.0,-100.00,NE,55,2.0,9.0,65,0.00,,,0.00,876.000000,,2013-05-21 19:11:00,
2013-05-21 15:21:00,87.0,74.0,-100.00,NE,55,2.0,9.0,65,0.00,,,0.00,876.000000,,2013-05-21 19:21:00,
2013-05-21 15:42:00,89.0,73.0,-100.00,NE,50,2.0,6.0,60,0.00,,,0.00,787.000000,,2013-05-21 19:42:00,
2013-05-21 15:52:00,89.0,73.0,-100.00,NE,50,2.0,6.0,60,0.00,,,0.00,787.000000,,2013-05-21 19:52:00,
2013-05-21 16:03:00,89.0,73.0,-100.00,NE,50,2.0,6.0,60,0.00,,,0.00,787.000000,,2013-05-21 20:03:00,
2013-05-21 16:11:00,89.0,73.0,-100.00,NE,50,2.0,6.0,60,0.00,,,0.00,787.000000,,2013-05-21 20:11:00,
2013-05-21 16:22:00,89.0,73.0,-100.00,NE,50,2.0,6.0,60,0.00,,,0.00,787.000000,,2013-05-21 20:22:00,
2013-05-21 16:42:00,85.0,71.0,-100.00,ESE,112,2.0,6.0,63,0.00,,,0.00,513.000000,,2013-05-21 20:42:00,
2013-05-21 16:52:00,85.0,71.0,-100.00,ESE,112,2.0,6.0,63,0.00,,,0.00,513.000000,,2013-05-21 20:52:00,
2013-05-21 17:02:00,85.0,71.0,-100.00,ESE,112,2.0,6.0,63,0.00,,,0.00,513.000000,,2013-05-21 21:02:00,
2013-05-21 17:11:00,85.0,71.0,-100.00,ESE,112,2.0,6.0,63,0.00,,,0.00,513.000000,,2013-05-21 21:11:00,
2013-05-21 17:21:00,85.0,71.0,-100.00,ESE,112,2.0,6.0,63,0.00,,,0.00,513.000000,,2013-05-21 21:21:00,
2013-05-21 17:44:00,85.0,74.0,-100.00,ESE,108,2.0,5.0,69,0.00,,,0.00,356.000000,,2013-05-21 21:44:00,
2013-05-21 17:54:00,85.0,74.0,-100.00,ESE,108,2.0,5.0,69,0.00,,,0.00,356.000000,,2013-05-21 21:54:00,
2013-05-21 18:02:00,85.0,74.0,-100.00,ESE,108,2.0,5.0,69,0.00,,,0.00,356.000000,,2013-05-21 22:02:00,
2013-05-21 18:12:00,85.0,74.0,-100.00,ESE,108,2.0,5.0,69,0.00,,,0.00,356.000000,,2013-05-21 22:12:00,
2013-05-21 18:22:00,85.0,74.0,-100.00,ESE,108,2.0,5.0,69,0.00,,,0.00,356.000000,,2013-05-21 22:22:00,
2013-05-21 18:42:00,72.0,64.0,-100.00,ESE,110,2.0,11.0,76,0.06,,,0.06,190.000000,,2013-05-21 22:42:00,
2013-05-21 18:53:00,72.0,64.0,-100.00,ESE,110,2.0,11.0,76,0.06,,,0.06,190.000000,,2013-05-21 22:53:00,
2013-05-21 19:02:00,72.0,64.0,-100.00,ESE,110,2.0,11.0,76,0.06,,,0.06,190.000000,,2013-05-21 23:02:00,
2013-05-21 19:12:00,72.0,64.0,-100.00,ESE,110,2.0,11.0,76,0.06,,,0.06,190.000000,,2013-05-21 23:12:00,
2013-05-21 19:22:00,72.0,64.0,-100.00,ESE,110,2.0,11.0,76,0.06,,,0.06,190.000000,,2013-05-21 23:22:00,
2013-05-21 19:42:00,72.0,72.0,-100.00,East,97,0.0,1.0,100,0.01,,,0.07,209.000000,,2013-05-21 23:42:00,
2013-05-21 19:52:00,72.0,72.0,-100.00,East,97,0.0,1.0,100,0.01,,,0.07,209.000000,,2013-05-21 23:52:00,
2013-05-21 20:01:00,72.0,72.0,-100.00,East,97,0.0,1.0,100,0.01,,,0.07,209.000000,,2013-05-22 00:01:00,
2013-05-21 20:11:00,72.0,72.0,-100.00,East,97,0.0,1.0,100,0.01,,,0.07,209.000000,,2013-05-22 00:11:00,
2013-05-21 20:21:00,72.0,72.0,-100.00,East,97,0.0,1.0,100,0.01,,,0.07,209.000000,,2013-05-22 00:21:00,
2013-05-21 20:42:00,71.0,71.0,-100.00,ESE,116,0.0,0.0,100,0.00,,,0.07,35.000000,,2013-05-22 00:42:00,
2013-05-21 20:52:00,71.0,71.0,-100.00,ESE,116,0.0,0.0,100,0.00,,,0.07,35.000000,,2013-05-22 00:52:00,
2013-05-21 21:01:00,71.0,71.0,-100.00,ESE,116,0.0,0.0,100,0.00,,,0.07,35.000000,,2013-05-22 01:01:00,
2013-05-21 21:11:00,71.0,71.0,-100.00,ESE,116,0.0,0.0,100,0.00,,,0.07,35.000000,,2013-05-22 01:11:00,
2013-05-21 21:21:00,71.0,71.0,-100.00,ESE,116,0.0,0.0,100,0.00,,,0.07,35.000000,,2013-05-22 01:21:00,
2013-05-21 21:42:00,69.0,69.0,-100.00,East,100,0.0,0.0,100,0.00,,,0.07,2.000000,,2013-05-22 01:42:00,
2013-05-21 21:52:00,69.0,69.0,-100.00,East,100,0.0,0.0,100,0.00,,,0.07,2.000000,,2013-05-22 01:52:00,
2013-05-21 22:02:00,69.0,69.0,-100.00,East,100,0.0,0.0,100,0.00,,,0.07,2.000000,,2013-05-22 02:02:00,
2013-05-21 22:12:00,69.0,69.0,-100.00,East,100,0.0,0.0,100,0.00,,,0.07,2.000000,,2013-05-22 02:12:00,
2013-05-21 22:21:00,69.0,69.0,-100.00,East,100,0.0,0.0,100,0.00,,,0.07,2.000000,,2013-05-22 02:21:00,
2013-05-21 22:42:00,68.0,68.0,-100.00,East,99,0.0,0.0,100,0.00,,,0.07,0.000000,,2013-05-22 02:42:00,
2013-05-21 22:52:00,68.0,68.0,-100.00,East,99,0.0,0.0,100,0.00,,,0.07,0.000000,,2013-05-22 02:52:00,
2013-05-21 23:01:00,68.0,68.0,-100.00,East,99,0.0,0.0,100,0.00,,,0.07,0.000000,,2013-05-22 03:01:00,
2013-05-21 23:11:00,68.0,68.0,-100.00,East,99,0.0,0.0,100,0.00,,,0.07,0.000000,,2013-05-22 03:11:00,
2013-05-21 23:21:00,68.0,68.0,-100.00,East,99,0.0,0.0,100,0.00,,,0.07,0.000000,,2013-05-22 03:21:00,
2013-05-21 23:23:00,68.0,68.0,-100.00,ESE,120,0.0,0.0,100,0.00,,,0.07,0.000000,,2013-05-22 03:23:00,
2013-05-21 23:43:00,68.0,68.0,-100.00,ESE,120,0.0,0.0,100,0.00,,,0.07,0.000000,,2013-05-22 03:43:00,
2013-05-21 23:53:00,68.0,68.0,-100.00,ESE,120,0.0,0.0,100,0.00,,,0.07,0.000000,,2013-05-22 03:53:00,